Time;durP1;ratioP1;P1;durP2;ratioP2;P2;SDS_P1;SDS_P2;PMS_P1;PMS_P2;Temp;Humidity;BMP_temperature;BMP_pressure;BME280_temperature;BME280_humidity;BME280_pressure;Samples;Min_cycle;Max_cycle;Signal;HPM_P1;HPM_P2
2023/09/10 00:01:03;;;;;;;15.33;7.00;;;;;;;;;;4967314;28;20069;-74
2023/09/10 00:03:29;;;;;;;22.50;8.77;;;;;;;;;;4960639;28;20026;-74
2023/09/10 00:05:54;;;;;;;18.35;8.98;;;;;;;;;;4963403;28;20033;-74
2023/09/10 00:08:19;;;;;;;16.55;7.88;;;;;;;;;;4971426;28;20438;-74
2023/09/10 00:10:45;;;;;;;20.63;7.78;;;;;;;;;;4958433;28;20093;-74
2023/09/10 00:13:10;;;;;;;15.35;7.53;;;;;;;;;;4975817;28;20027;-74
2023/09/10 00:15:36;;;;;;;21.93;8.00;;;;;;;;;;4972148;28;20038;-74
2023/09/10 00:18:01;;;;;;;11.85;7.60;;;;;;;;;;4963110;28;20204;-73
2023/09/10 00:20:29;;;;;;;13.40;7.67;;;;;;;;;;4960298;28;20027;-73
2023/09/10 00:22:57;;;;;;;17.58;7.47;;;;;;;;;;4974414;28;20304;-73
2023/09/10 00:25:23;;;;;;;14.48;7.25;;;;;;;;;;4970282;28;20015;-73
2023/09/10 00:27:48;;;;;;;27.67;8.15;;;;;;;;;;4970152;28;20065;-74
2023/09/10 00:30:13;;;;;;;20.33;7.17;;;;;;;;;;4963546;28;20048;-74
2023/09/10 00:32:38;;;;;;;27.20;8.33;;;;;;;;;;4968877;28;20661;-74
2023/09/10 00:35:03;;;;;;;16.60;9.03;;;;;;;;;;4972238;28;20567;-74
2023/09/10 00:37:29;;;;;;;19.45;7.50;;;;;;;;;;4970111;28;20281;-73
2023/09/10 00:39:54;;;;;;;21.10;8.23;;;;;;;;;;4967292;28;20037;-73
2023/09/10 00:42:19;;;;;;;17.67;6.90;;;;;;;;;;4966026;28;20031;-73
2023/09/10 00:44:44;;;;;;;19.25;8.82;;;;;;;;;;4973665;28;20101;-73
2023/09/10 00:47:09;;;;;;;19.45;8.32;;;;;;;;;;4970478;28;20018;-73
2023/09/10 00:49:35;;;;;;;20.92;8.40;;;;;;;;;;4969278;28;20030;-73
2023/09/10 00:52:00;;;;;;;15.93;8.20;;;;;;;;;;4968252;28;20050;-73
2023/09/10 00:54:30;;;;;;;22.17;7.95;;;;;;;;;;4970501;28;20034;-73
2023/09/10 00:56:55;;;;;;;19.45;8.25;;;;;;;;;;4973553;28;20026;-73
2023/09/10 00:59:20;;;;;;;21.02;8.40;;;;;;;;;;4970867;28;20030;-73
2023/09/10 01:01:45;;;;;;;15.07;8.00;;;;;;;;;;4969716;28;20034;-73
2023/09/10 01:04:11;;;;;;;17.67;8.43;;;;;;;;;;4967051;28;20274;-73
2023/09/10 01:06:37;;;;;;;24.17;8.90;;;;;;;;;;4975174;28;20332;-73
2023/09/10 01:09:02;;;;;;;16.10;8.13;;;;;;;;;;4972863;28;20122;-73
2023/09/10 01:11:34;;;;;;;29.50;10.10;;;;;;;;;;4967518;28;20360;-73
2023/09/10 01:14:02;;;;;;;16.67;8.38;;;;;;;;;;4966143;28;20029;-73
2023/09/10 01:16:32;;;;;;;17.92;7.82;;;;;;;;;;4975345;28;20042;-74
2023/09/10 01:19:18;;;;;;;21.23;7.88;;;;;;;;;;4974353;28;20025;-73
2023/09/10 01:21:55;;;;;;;13.45;7.40;;;;;;;;;;4924679;28;20035;-73
2023/09/10 01:24:27;;;;;;;16.33;7.80;;;;;;;;;;4971123;28;20023;-73
2023/09/10 01:26:56;;;;;;;14.45;7.60;;;;;;;;;;4959885;28;20385;-73
2023/09/10 01:29:21;;;;;;;15.30;7.43;;;;;;;;;;4971322;28;20022;-74
2023/09/10 01:31:48;;;;;;;23.10;8.37;;;;;;;;;;4960012;28;20082;-74
2023/09/10 01:34:15;;;;;;;17.25;8.00;;;;;;;;;;4961385;28;20603;-74
2023/09/10 01:36:42;;;;;;;15.85;8.10;;;;;;;;;;4962458;28;20441;-73
2023/09/10 01:39:12;;;;;;;16.20;7.88;;;;;;;;;;4968963;28;20094;-73
2023/09/10 01:41:38;;;;;;;21.75;8.75;;;;;;;;;;4965586;28;20023;-73
2023/09/10 01:44:05;;;;;;;17.83;8.73;;;;;;;;;;4963912;28;20089;-73
2023/09/10 01:46:32;;;;;;;15.93;8.65;;;;;;;;;;4963919;28;20027;-73
2023/09/10 01:48:57;;;;;;;18.17;8.40;;;;;;;;;;4967167;28;20019;-73
2023/09/10 01:51:22;;;;;;;17.98;8.20;;;;;;;;;;4968113;28;20027;-73
2023/09/10 01:53:48;;;;;;;17.00;7.20;;;;;;;;;;4971927;28;20027;-73
2023/09/10 01:56:13;;;;;;;20.05;9.15;;;;;;;;;;4972861;28;20733;-73
2023/09/10 01:58:38;;;;;;;23.35;7.93;;;;;;;;;;4970538;28;20030;-73
2023/09/10 02:01:05;;;;;;;17.10;8.33;;;;;;;;;;4969792;28;20401;-73
2023/09/10 02:03:31;;;;;;;17.33;8.15;;;;;;;;;;4971742;28;20793;-74
2023/09/10 02:05:57;;;;;;;23.60;9.00;;;;;;;;;;4970809;28;20472;-74
2023/09/10 02:08:23;;;;;;;22.27;8.63;;;;;;;;;;4968696;28;20019;-74
2023/09/10 02:10:48;;;;;;;17.47;7.47;;;;;;;;;;4967918;28;20023;-74
2023/09/10 02:13:13;;;;;;;19.40;8.97;;;;;;;;;;4965788;28;20780;-74
2023/09/10 02:15:39;;;;;;;15.87;8.13;;;;;;;;;;4968775;28;20050;-74
2023/09/10 02:18:04;;;;;;;21.45;7.68;;;;;;;;;;4970220;28;20270;-73
2023/09/10 02:20:33;;;;;;;17.25;8.80;;;;;;;;;;4969899;28;20062;-73
2023/09/10 02:22:58;;;;;;;18.10;8.35;;;;;;;;;;4968678;28;20027;-73
2023/09/10 02:25:23;;;;;;;27.20;10.43;;;;;;;;;;4973273;28;20070;-73
2023/09/10 02:27:49;;;;;;;20.60;8.60;;;;;;;;;;4971011;28;20270;-73
2023/09/10 02:30:14;;;;;;;16.35;8.68;;;;;;;;;;4969643;28;20813;-73
2023/09/10 02:32:39;;;;;;;26.53;9.47;;;;;;;;;;4967909;28;20525;-73
2023/09/10 02:35:04;;;;;;;17.53;8.20;;;;;;;;;;4966917;28;20352;-73
2023/09/10 02:37:30;;;;;;;14.88;7.88;;;;;;;;;;4963192;28;20027;-73
2023/09/10 02:39:56;;;;;;;14.07;8.38;;;;;;;;;;4968863;28;20050;-73
2023/09/10 02:42:21;;;;;;;24.63;9.57;;;;;;;;;;4963986;28;20065;-73
2023/09/10 02:44:46;;;;;;;17.27;8.60;;;;;;;;;;4961521;28;20347;-73
2023/09/10 02:47:11;;;;;;;19.40;7.87;;;;;;;;;;4968938;28;20282;-73
2023/09/10 02:49:36;;;;;;;19.67;8.35;;;;;;;;;;4966837;28;20117;-74
2023/09/10 02:52:02;;;;;;;15.90;7.93;;;;;;;;;;4970676;28;20019;-74
2023/09/10 02:54:28;;;;;;;21.85;8.23;;;;;;;;;;4965284;28;20035;-74
2023/09/10 02:56:53;;;;;;;21.02;8.50;;;;;;;;;;4975555;28;20037;-73
2023/09/10 02:59:19;;;;;;;21.20;8.93;;;;;;;;;;4955111;28;20031;-73
2023/09/10 03:01:44;;;;;;;23.73;8.25;;;;;;;;;;4967464;28;20085;-73
2023/09/10 03:04:09;;;;;;;16.30;8.23;;;;;;;;;;4968660;28;20043;-73
2023/09/10 03:06:34;;;;;;;14.63;7.07;;;;;;;;;;4970445;28;20277;-73
2023/09/10 03:08:59;;;;;;;20.00;8.13;;;;;;;;;;4966436;28;20042;-74
2023/09/10 03:11:25;;;;;;;22.10;8.23;;;;;;;;;;4969935;28;20401;-74
2023/09/10 03:13:50;;;;;;;17.87;8.47;;;;;;;;;;4968419;28;20482;-74
2023/09/10 03:16:15;;;;;;;19.03;7.93;;;;;;;;;;4969706;28;20266;-74
2023/09/10 03:18:40;;;;;;;15.00;8.30;;;;;;;;;;4966682;28;20119;-73
2023/09/10 03:21:05;;;;;;;14.77;8.45;;;;;;;;;;4959418;28;20031;-74
2023/09/10 03:23:31;;;;;;;13.37;8.00;;;;;;;;;;4958735;28;20026;-74
2023/09/10 03:25:56;;;;;;;16.63;8.70;;;;;;;;;;4963310;28;20290;-74
2023/09/10 03:28:21;;;;;;;20.63;8.73;;;;;;;;;;4962577;28;20027;-73
2023/09/10 03:30:46;;;;;;;14.52;8.98;;;;;;;;;;4968835;28;20258;-73
2023/09/10 03:33:11;;;;;;;14.63;8.17;;;;;;;;;;4966285;28;20019;-73
2023/09/10 03:35:37;;;;;;;14.37;8.57;;;;;;;;;;4962315;28;20776;-73
2023/09/10 03:38:02;;;;;;;15.30;8.50;;;;;;;;;;4960250;28;20283;-73
2023/09/10 03:40:27;;;;;;;22.75;8.90;;;;;;;;;;4957142;28;20301;-73
2023/09/10 03:42:52;;;;;;;19.57;8.23;;;;;;;;;;4962392;28;20038;-73
2023/09/10 03:45:18;;;;;;;16.50;7.27;;;;;;;;;;4964578;28;20266;-73
2023/09/10 03:47:43;;;;;;;16.33;8.35;;;;;;;;;;4963539;28;20259;-74
2023/09/10 03:50:10;;;;;;;17.70;8.20;;;;;;;;;;4959649;28;20019;-74
2023/09/10 03:52:36;;;;;;;18.17;8.18;;;;;;;;;;4964018;28;20266;-73
2023/09/10 03:55:01;;;;;;;18.13;8.47;;;;;;;;;;4969412;28;20154;-73
2023/09/10 03:57:26;;;;;;;17.48;8.35;;;;;;;;;;4971719;28;20282;-73
2023/09/10 03:59:51;;;;;;;20.65;9.02;;;;;;;;;;4965474;28;20023;-73
2023/09/10 04:02:17;;;;;;;17.57;8.60;;;;;;;;;;4961911;28;20035;-73
2023/09/10 04:04:42;;;;;;;22.50;9.15;;;;;;;;;;4967754;28;20062;-74
2023/09/10 04:07:07;;;;;;;14.82;7.88;;;;;;;;;;4969981;28;20054;-73
2023/09/10 04:09:32;;;;;;;20.20;8.27;;;;;;;;;;4970518;28;20489;-73
2023/09/10 04:11:57;;;;;;;23.33;9.50;;;;;;;;;;4969724;28;20275;-73
2023/09/10 04:14:23;;;;;;;14.77;8.55;;;;;;;;;;4969560;28;20262;-73
2023/09/10 04:16:48;;;;;;;20.10;9.05;;;;;;;;;;4966165;28;20026;-73
2023/09/10 04:19:13;;;;;;;18.42;8.50;;;;;;;;;;4966842;28;20026;-74
2023/09/10 04:21:39;;;;;;;20.73;7.97;;;;;;;;;;4964133;28;20045;-73
2023/09/10 04:24:05;;;;;;;18.07;8.57;;;;;;;;;;4968231;28;20293;-73
2023/09/10 04:26:30;;;;;;;13.65;7.90;;;;;;;;;;4974405;28;20369;-73
2023/09/10 04:28:55;;;;;;;24.65;9.98;;;;;;;;;;4966490;28;20090;-73
2023/09/10 04:31:21;;;;;;;17.17;8.03;;;;;;;;;;4974049;28;20117;-73
2023/09/10 04:33:46;;;;;;;18.40;8.05;;;;;;;;;;4967077;28;20622;-74
2023/09/10 04:36:11;;;;;;;13.80;9.20;;;;;;;;;;4972353;28;20081;-74
2023/09/10 04:38:36;;;;;;;23.25;8.77;;;;;;;;;;4971800;28;20022;-73
2023/09/10 04:41:02;;;;;;;15.43;8.83;;;;;;;;;;4963632;28;20027;-73
2023/09/10 04:43:27;;;;;;;18.50;9.93;;;;;;;;;;4970342;28;20317;-73
2023/09/10 04:45:52;;;;;;;22.30;9.60;;;;;;;;;;4966662;28;20306;-73
2023/09/10 04:48:18;;;;;;;16.38;9.55;;;;;;;;;;4973971;28;20034;-73
2023/09/10 04:50:43;;;;;;;17.20;9.13;;;;;;;;;;4969403;28;20019;-74
2023/09/10 04:53:09;;;;;;;15.30;9.80;;;;;;;;;;4967086;28;20077;-73
2023/09/10 04:55:34;;;;;;;19.52;9.55;;;;;;;;;;4964880;28;20031;-73
2023/09/10 04:57:59;;;;;;;19.95;9.70;;;;;;;;;;4972056;28;20543;-73
2023/09/10 05:00:25;;;;;;;18.63;10.13;;;;;;;;;;4971948;28;20038;-73
2023/09/10 05:02:50;;;;;;;18.43;9.60;;;;;;;;;;4972608;28;20025;-73
2023/09/10 05:05:15;;;;;;;18.93;9.10;;;;;;;;;;4972303;28;20278;-73
2023/09/10 05:07:40;;;;;;;19.52;8.90;;;;;;;;;;4970912;28;20316;-73
2023/09/10 05:10:06;;;;;;;18.77;9.77;;;;;;;;;;4971431;28;20262;-73
2023/09/10 05:12:31;;;;;;;27.77;12.77;;;;;;;;;;4972501;28;20776;-73
2023/09/10 05:14:56;;;;;;;16.47;9.57;;;;;;;;;;4974264;28;20026;-73
2023/09/10 05:17:21;;;;;;;18.43;9.07;;;;;;;;;;4972443;28;20761;-73
2023/09/10 05:19:47;;;;;;;14.60;8.53;;;;;;;;;;4969844;28;20278;-73
2023/09/10 05:22:13;;;;;;;16.38;8.93;;;;;;;;;;4966003;28;20361;-73
2023/09/10 05:24:38;;;;;;;20.08;9.68;;;;;;;;;;4972418;28;20121;-74
2023/09/10 05:27:03;;;;;;;16.23;9.03;;;;;;;;;;4967087;28;20022;-73
2023/09/10 05:29:28;;;;;;;22.90;8.13;;;;;;;;;;4948152;28;20023;-73
2023/09/10 05:31:53;;;;;;;13.85;8.05;;;;;;;;;;4966548;28;20262;-73
2023/09/10 05:34:19;;;;;;;18.43;8.50;;;;;;;;;;4964158;28;20224;-73
2023/09/10 05:36:44;;;;;;;17.63;8.80;;;;;;;;;;4963413;28;20836;-73
2023/09/10 05:39:09;;;;;;;21.33;9.20;;;;;;;;;;4969920;28;20446;-73
2023/09/10 05:41:35;;;;;;;19.17;9.67;;;;;;;;;;4964747;28;20035;-73
2023/09/10 05:44:00;;;;;;;18.40;9.17;;;;;;;;;;4968355;28;20282;-73
2023/09/10 05:46:25;;;;;;;18.10;8.93;;;;;;;;;;4964222;28;20075;-73
2023/09/10 05:48:50;;;;;;;15.18;8.80;;;;;;;;;;4964864;28;20069;-73
2023/09/10 05:51:15;;;;;;;21.63;9.83;;;;;;;;;;4967930;28;20035;-73
2023/09/10 05:53:42;;;;;;;18.87;9.17;;;;;;;;;;4971082;28;20292;-73
2023/09/10 05:56:07;;;;;;;21.05;9.18;;;;;;;;;;4969868;28;20332;-73
2023/09/10 05:58:33;;;;;;;21.90;9.80;;;;;;;;;;4965450;28;20039;-73
2023/09/10 06:00:58;;;;;;;17.90;8.32;;;;;;;;;;4964626;28;20023;-73
2023/09/10 06:03:23;;;;;;;15.77;7.77;;;;;;;;;;4968047;28;20096;-74
2023/09/10 06:05:48;;;;;;;22.17;8.95;;;;;;;;;;4973974;28;20290;-74
2023/09/10 06:08:13;;;;;;;16.58;8.20;;;;;;;;;;4971105;28;20069;-73
2023/09/10 06:10:39;;;;;;;25.63;9.03;;;;;;;;;;4973103;28;20023;-73
2023/09/10 06:13:04;;;;;;;27.67;8.93;;;;;;;;;;4970622;28;20055;-73
2023/09/10 06:15:29;;;;;;;20.27;9.33;;;;;;;;;;4972693;28;20464;-74
2023/09/10 06:17:54;;;;;;;19.20;10.57;;;;;;;;;;4960984;28;20037;-73
2023/09/10 06:20:19;;;;;;;18.43;10.03;;;;;;;;;;4972427;28;20062;-73
2023/09/10 06:22:44;;;;;;;29.17;10.57;;;;;;;;;;4972456;28;20776;-73
2023/09/10 06:25:10;;;;;;;19.57;9.60;;;;;;;;;;4965889;28;20283;-73
2023/09/10 06:27:35;;;;;;;14.67;9.30;;;;;;;;;;4968461;28;20270;-73
2023/09/10 06:30:00;;;;;;;17.67;9.25;;;;;;;;;;4960081;28;20552;-73
2023/09/10 06:32:25;;;;;;;24.20;9.20;;;;;;;;;;4963042;28;20061;-74
2023/09/10 06:34:51;;;;;;;20.50;8.90;;;;;;;;;;4968724;28;20384;-74
2023/09/10 06:37:16;;;;;;;16.90;8.73;;;;;;;;;;4965930;28;20026;-74
2023/09/10 06:39:41;;;;;;;20.17;8.00;;;;;;;;;;4962341;28;20579;-74
2023/09/10 06:42:10;;;;;;;24.23;8.80;;;;;;;;;;4964303;28;20285;-74
2023/09/10 06:44:38;;;;;;;16.80;7.78;;;;;;;;;;4968919;28;20265;-74
2023/09/10 06:47:03;;;;;;;15.82;8.25;;;;;;;;;;4958401;28;20158;-74
2023/09/10 06:49:28;;;;;;;21.47;7.97;;;;;;;;;;4963357;28;20284;-74
2023/09/10 06:51:53;;;;;;;22.10;8.53;;;;;;;;;;4962797;28;20278;-74
2023/09/10 06:54:18;;;;;;;17.85;7.45;;;;;;;;;;4959324;28;20745;-74
2023/09/10 06:56:44;;;;;;;14.40;6.60;;;;;;;;;;4962959;28;20093;-74
2023/09/10 06:59:09;;;;;;;13.63;7.03;;;;;;;;;;4967172;28;20900;-74
2023/09/10 07:01:37;;;;;;;18.53;6.87;;;;;;;;;;4967465;28;20595;-74
2023/09/10 07:04:14;;;;;;;20.45;7.03;;;;;;;;;;4961443;28;20386;-74
2023/09/10 07:06:39;;;;;;;19.40;7.93;;;;;;;;;;4959835;28;20019;-74
2023/09/10 07:09:04;;;;;;;17.87;6.03;;;;;;;;;;4958034;28;20031;-74
2023/09/10 07:11:29;;;;;;;18.65;7.07;;;;;;;;;;4961490;28;20069;-74
2023/09/10 07:13:55;;;;;;;25.30;7.87;;;;;;;;;;4946957;28;20035;-74
2023/09/10 07:16:21;;;;;;;13.40;6.90;;;;;;;;;;4981505;28;20058;-74
2023/09/10 07:18:46;;;;;;;17.55;8.90;;;;;;;;;;4974837;28;20729;-74
2023/09/10 07:21:12;;;;;;;18.63;6.90;;;;;;;;;;4971907;28;20037;-74
2023/09/10 07:23:37;;;;;;;13.43;7.15;;;;;;;;;;4975507;28;20023;-74
2023/09/10 07:26:02;;;;;;;18.17;7.40;;;;;;;;;;4971610;28;20185;-75
2023/09/10 07:28:27;;;;;;;19.43;6.83;;;;;;;;;;4966658;28;20459;-75
2023/09/10 07:30:53;;;;;;;20.27;7.27;;;;;;;;;;4967948;28;20030;-74
2023/09/10 07:33:18;;;;;;;15.53;6.27;;;;;;;;;;4966468;28;20367;-75
2023/09/10 07:35:43;;;;;;;22.70;7.10;;;;;;;;;;4944262;28;20514;-75
2023/09/10 07:38:08;;;;;;;22.13;6.83;;;;;;;;;;4957755;28;20030;-75
2023/09/10 07:40:33;;;;;;;15.13;6.30;;;;;;;;;;4962096;28;20039;-75
2023/09/10 07:42:59;;;;;;;19.00;6.13;;;;;;;;;;4964448;28;20117;-75
2023/09/10 07:45:24;;;;;;;13.73;6.45;;;;;;;;;;4968036;28;20020;-75
2023/09/10 07:47:49;;;;;;;17.90;6.32;;;;;;;;;;4965692;28;20011;-75
2023/09/10 07:50:14;;;;;;;19.97;6.07;;;;;;;;;;4960444;28;20378;-75
2023/09/10 07:52:40;;;;;;;11.03;5.60;;;;;;;;;;4963363;28;20553;-75
2023/09/10 07:55:05;;;;;;;18.50;6.77;;;;;;;;;;4966290;28;20274;-75
2023/09/10 07:57:30;;;;;;;20.50;5.53;;;;;;;;;;4971653;28;20051;-75
2023/09/10 07:59:55;;;;;;;17.83;6.13;;;;;;;;;;4942314;28;20027;-75
2023/09/10 08:02:22;;;;;;;17.93;6.47;;;;;;;;;;4944713;28;20027;-75
2023/09/10 08:04:48;;;;;;;18.02;7.70;;;;;;;;;;4949920;28;20026;-75
2023/09/10 08:07:13;;;;;;;23.45;7.07;;;;;;;;;;4965042;28;20062;-75
2023/09/10 08:09:39;;;;;;;20.83;6.60;;;;;;;;;;4963901;28;20504;-75
2023/09/10 08:12:04;;;;;;;14.43;6.18;;;;;;;;;;4967963;28;20034;-75
2023/09/10 08:14:29;;;;;;;20.10;6.88;;;;;;;;;;4959833;28;20513;-75
2023/09/10 08:16:55;;;;;;;10.18;6.32;;;;;;;;;;4965436;28;20102;-75
2023/09/10 08:19:20;;;;;;;14.67;6.07;;;;;;;;;;4965880;28;20059;-75
2023/09/10 08:21:45;;;;;;;15.90;5.83;;;;;;;;;;4965476;28;20114;-75
2023/09/10 08:24:10;;;;;;;13.57;5.97;;;;;;;;;;4962611;28;20109;-75
2023/09/10 08:26:36;;;;;;;18.10;6.10;;;;;;;;;;4949339;28;20111;-75
2023/09/10 08:29:01;;;;;;;20.10;5.90;;;;;;;;;;4976861;28;20026;-75
2023/09/10 08:31:26;;;;;;;14.73;5.70;;;;;;;;;;4976087;28;20046;-75
2023/09/10 08:33:51;;;;;;;13.43;6.20;;;;;;;;;;4968039;28;20277;-75
2023/09/10 08:36:16;;;;;;;12.37;6.60;;;;;;;;;;4964069;28;20023;-75
2023/09/10 08:38:42;;;;;;;19.63;6.20;;;;;;;;;;4970201;28;20057;-75
2023/09/10 08:41:23;;;;;;;10.20;5.25;;;;;;;;;;4963466;28;20058;-75
2023/09/10 08:43:55;;;;;;;15.65;5.38;;;;;;;;;;4967397;28;20034;-75
2023/09/10 08:46:22;;;;;;;17.40;5.20;;;;;;;;;;4968184;28;20513;-75
2023/09/10 08:48:48;;;;;;;20.13;5.43;;;;;;;;;;4971194;28;20019;-74
2023/09/10 08:51:14;;;;;;;13.20;6.10;;;;;;;;;;4968215;28;20117;-74
2023/09/10 08:53:43;;;;;;;12.48;5.50;;;;;;;;;;4967875;28;20153;-74
2023/09/10 08:56:08;;;;;;;14.27;5.50;;;;;;;;;;4970367;28;20018;-75
2023/09/10 08:58:35;;;;;;;15.80;6.47;;;;;;;;;;4961727;28;20061;-74
2023/09/10 09:01:00;;;;;;;12.60;6.45;;;;;;;;;;4968293;28;20034;-75
2023/09/10 09:03:26;;;;;;;18.38;6.68;;;;;;;;;;4968203;28;20018;-74
2023/09/10 09:05:52;;;;;;;18.58;6.78;;;;;;;;;;4967580;28;20019;-74
2023/09/10 09:08:20;;;;;;;21.85;6.00;;;;;;;;;;4960377;28;20019;-74
2023/09/10 09:10:45;;;;;;;14.63;6.20;;;;;;;;;;4967441;28;20543;-75
2023/09/10 09:13:12;;;;;;;18.15;6.47;;;;;;;;;;4963424;28;20055;-74
2023/09/10 09:15:38;;;;;;;16.02;6.10;;;;;;;;;;4967217;28;20422;-74
2023/09/10 09:18:03;;;;;;;15.38;6.10;;;;;;;;;;4968628;28;20041;-74
2023/09/10 09:20:30;;;;;;;13.38;6.32;;;;;;;;;;4960041;28;20449;-74
2023/09/10 09:22:58;;;;;;;18.45;6.10;;;;;;;;;;4968612;28;20034;-74
2023/09/10 09:25:23;;;;;;;10.60;5.28;;;;;;;;;;4963310;28;20031;-74
2023/09/10 09:27:50;;;;;;;17.30;6.73;;;;;;;;;;4959273;28;20037;-74
2023/09/10 09:30:15;;;;;;;14.70;6.28;;;;;;;;;;4957571;28;20011;-74
2023/09/10 09:32:40;;;;;;;17.05;6.07;;;;;;;;;;4961631;28;20611;-74
2023/09/10 09:35:09;;;;;;;16.10;5.93;;;;;;;;;;4966440;28;20027;-74
2023/09/10 09:37:35;;;;;;;16.93;5.70;;;;;;;;;;4966821;28;20046;-74
2023/09/10 09:40:00;;;;;;;24.20;6.38;;;;;;;;;;4967739;28;20023;-74
2023/09/10 09:42:26;;;;;;;22.38;5.88;;;;;;;;;;4960934;28;20054;-74
2023/09/10 09:44:51;;;;;;;19.05;5.80;;;;;;;;;;4967138;28;20073;-74
2023/09/10 09:47:16;;;;;;;19.30;6.80;;;;;;;;;;4958057;28;20406;-74
2023/09/10 09:49:42;;;;;;;17.47;6.33;;;;;;;;;;4958918;28;20015;-75
2023/09/10 09:52:09;;;;;;;15.23;5.85;;;;;;;;;;4966049;28;20011;-74
2023/09/10 09:54:35;;;;;;;20.73;5.93;;;;;;;;;;4966359;28;20026;-74
2023/09/10 09:57:02;;;;;;;16.77;6.10;;;;;;;;;;4964900;28;20062;-74
2023/09/10 09:59:27;;;;;;;22.58;7.00;;;;;;;;;;4962967;28;20289;-74
2023/09/10 10:01:52;;;;;;;18.17;6.23;;;;;;;;;;4963698;28;21398;-74
2023/09/10 10:04:18;;;;;;;18.40;5.70;;;;;;;;;;4957530;28;20035;-74
2023/09/10 10:06:44;;;;;;;16.45;5.65;;;;;;;;;;4966390;28;20030;-74
2023/09/10 10:09:09;;;;;;;25.65;6.60;;;;;;;;;;4963667;28;20479;-74
2023/09/10 10:11:35;;;;;;;22.27;6.05;;;;;;;;;;4958736;28;20078;-74
2023/09/10 10:14:00;;;;;;;18.67;5.55;;;;;;;;;;4960299;28;20035;-74
2023/09/10 10:16:26;;;;;;;12.60;4.70;;;;;;;;;;4962915;28;20022;-74
2023/09/10 10:18:53;;;;;;;14.55;4.10;;;;;;;;;;4958973;28;20046;-75
2023/09/10 10:21:18;;;;;;;13.98;4.82;;;;;;;;;;4966418;28;20402;-75
2023/09/10 10:23:43;;;;;;;16.00;4.45;;;;;;;;;;4967916;28;20023;-75
2023/09/10 10:26:10;;;;;;;11.43;4.88;;;;;;;;;;4964046;28;20486;-75
2023/09/10 10:28:36;;;;;;;26.35;4.65;;;;;;;;;;4973568;28;20054;-75
2023/09/10 10:31:04;;;;;;;17.40;5.57;;;;;;;;;;4968920;28;20015;-74
2023/09/10 10:33:30;;;;;;;18.10;5.65;;;;;;;;;;4961693;28;20082;-74
2023/09/10 10:36:12;;;;;;;18.23;5.28;;;;;;;;;;4974460;28;20064;-74
2023/09/10 10:38:42;;;;;;;19.40;4.90;;;;;;;;;;4970878;28;20046;-75
2023/09/10 10:41:11;;;;;;;15.20;5.10;;;;;;;;;;4963247;28;20032;-75
2023/09/10 10:43:40;;;;;;;17.50;5.97;;;;;;;;;;4963708;28;20033;-75
2023/09/10 10:46:07;;;;;;;11.30;5.00;;;;;;;;;;4974852;28;20073;-75
2023/09/10 10:48:36;;;;;;;17.58;5.38;;;;;;;;;;4969118;28;20149;-74
2023/09/10 10:51:02;;;;;;;13.23;5.82;;;;;;;;;;4969480;28;20296;-75
2023/09/10 10:53:27;;;;;;;16.05;5.85;;;;;;;;;;4969613;28;20019;-75
2023/09/10 10:55:55;;;;;;;18.60;5.87;;;;;;;;;;4964782;28;20460;-75
2023/09/10 10:58:21;;;;;;;14.93;5.97;;;;;;;;;;4961889;28;20057;-75
2023/09/10 11:00:53;;;;;;;12.57;4.90;;;;;;;;;;4970008;28;20054;-75
2023/09/10 11:03:20;;;;;;;12.93;5.75;;;;;;;;;;4962870;28;20049;-75
2023/09/10 11:06:04;;;;;;;15.52;6.10;;;;;;;;;;4964821;28;20022;-74
2023/09/10 11:08:32;;;;;;;15.23;4.93;;;;;;;;;;4970744;28;20022;-74
2023/09/10 11:10:58;;;;;;;14.90;4.80;;;;;;;;;;4965025;28;20398;-75
2023/09/10 11:13:23;;;;;;;16.52;5.65;;;;;;;;;;4966245;28;20015;-75
2023/09/10 11:16:03;;;;;;;12.15;4.95;;;;;;;;;;4971407;28;20018;-75
2023/09/10 11:18:34;;;;;;;15.90;5.53;;;;;;;;;;4954552;28;20028;-75
2023/09/10 11:21:00;;;;;;;13.88;5.47;;;;;;;;;;4956675;28;20027;-75
2023/09/10 11:23:25;;;;;;;10.98;5.22;;;;;;;;;;4968944;28;20030;-75
2023/09/10 11:25:51;;;;;;;10.63;4.90;;;;;;;;;;4965802;28;20095;-75
2023/09/10 11:28:34;;;;;;;19.23;6.53;;;;;;;;;;4970317;28;20026;-75
2023/09/10 11:31:02;;;;;;;12.57;4.50;;;;;;;;;;4964785;28;20262;-74
2023/09/10 11:33:28;;;;;;;15.20;4.60;;;;;;;;;;4969196;28;20026;-74
2023/09/10 11:35:57;;;;;;;16.95;5.28;;;;;;;;;;4968735;28;20395;-75
2023/09/10 11:38:22;;;;;;;21.67;5.70;;;;;;;;;;4967462;28;20123;-75
2023/09/10 11:40:47;;;;;;;14.10;4.90;;;;;;;;;;4970209;28;20026;-75
2023/09/10 11:43:13;;;;;;;13.70;4.80;;;;;;;;;;4964734;28;20023;-75
2023/09/10 11:45:38;;;;;;;17.20;5.17;;;;;;;;;;4966989;28;21518;-75
2023/09/10 11:48:05;;;;;;;12.50;5.70;;;;;;;;;;4971970;28;20015;-75
2023/09/10 11:50:33;;;;;;;19.98;5.38;;;;;;;;;;4971941;28;20476;-75
2023/09/10 11:52:58;;;;;;;20.17;5.82;;;;;;;;;;4967217;28;20031;-75
2023/09/10 11:55:23;;;;;;;16.63;4.25;;;;;;;;;;4967840;28;21430;-74
2023/09/10 11:57:50;;;;;;;10.07;4.53;;;;;;;;;;4967273;28;20086;-74
2023/09/10 12:00:16;;;;;;;10.40;5.15;;;;;;;;;;4962076;28;20019;-74
2023/09/10 12:02:41;;;;;;;15.00;3.97;;;;;;;;;;4974315;28;20050;-74
2023/09/10 12:05:07;;;;;;;15.98;5.40;;;;;;;;;;4964955;28;20070;-75
2023/09/10 12:07:33;;;;;;;13.73;4.93;;;;;;;;;;4973015;28;20079;-75
2023/09/10 12:09:58;;;;;;;14.95;5.53;;;;;;;;;;4972903;28;20101;-74
2023/09/10 12:12:26;;;;;;;16.50;5.83;;;;;;;;;;4968779;28;21522;-75
2023/09/10 12:14:52;;;;;;;14.50;4.70;;;;;;;;;;4966412;28;20470;-74
2023/09/10 12:17:17;;;;;;;14.05;4.78;;;;;;;;;;4964648;28;20051;-74
2023/09/10 12:19:42;;;;;;;16.83;4.00;;;;;;;;;;4971482;28;20027;-75
2023/09/10 12:22:10;;;;;;;13.15;4.57;;;;;;;;;;4967454;28;20069;-75
2023/09/10 12:24:36;;;;;;;12.18;4.78;;;;;;;;;;4969313;28;20641;-74
2023/09/10 12:27:02;;;;;;;13.07;6.00;;;;;;;;;;4968177;28;20382;-75
2023/09/10 12:29:27;;;;;;;14.68;5.00;;;;;;;;;;4972432;28;20398;-75
2023/09/10 12:31:56;;;;;;;16.38;4.65;;;;;;;;;;4969857;28;20089;-75
2023/09/10 12:34:22;;;;;;;20.10;5.43;;;;;;;;;;4965513;28;20026;-75
2023/09/10 12:36:47;;;;;;;8.95;4.75;;;;;;;;;;4965122;28;20082;-75
2023/09/10 12:39:22;;;;;;;12.83;4.47;;;;;;;;;;4961727;28;20050;-74
2023/09/10 12:41:48;;;;;;;14.48;4.30;;;;;;;;;;4967850;28;20312;-74
2023/09/10 12:44:13;;;;;;;18.15;4.75;;;;;;;;;;4970031;28;20438;-74
2023/09/10 12:46:39;;;;;;;11.53;4.67;;;;;;;;;;4972416;28;20018;-75
2023/09/10 12:49:04;;;;;;;13.80;4.72;;;;;;;;;;4968034;28;20278;-75
2023/09/10 12:51:30;;;;;;;13.53;4.83;;;;;;;;;;4970018;28;20097;-75
2023/09/10 12:53:55;;;;;;;17.57;5.23;;;;;;;;;;4970265;28;20085;-75
2023/09/10 12:56:20;;;;;;;20.23;5.03;;;;;;;;;;4970818;28;20058;-75
2023/09/10 12:58:47;;;;;;;13.60;5.03;;;;;;;;;;4967634;28;20359;-75
2023/09/10 13:01:14;;;;;;;14.50;4.88;;;;;;;;;;4966539;28;20023;-74
2023/09/10 13:03:39;;;;;;;16.70;5.60;;;;;;;;;;4971044;28;20035;-75
2023/09/10 13:06:04;;;;;;;15.63;5.67;;;;;;;;;;4965435;28;20034;-74
2023/09/10 13:08:29;;;;;;;17.20;5.20;;;;;;;;;;4963393;28;20018;-74
2023/09/10 13:10:55;;;;;;;11.33;4.57;;;;;;;;;;4967041;28;20364;-74
2023/09/10 13:13:20;;;;;;;14.47;5.03;;;;;;;;;;4967383;28;20466;-74
2023/09/10 13:15:45;;;;;;;17.08;5.10;;;;;;;;;;4973013;28;20274;-74
2023/09/10 13:18:11;;;;;;;12.00;4.10;;;;;;;;;;4971452;28;20023;-74
2023/09/10 13:20:37;;;;;;;13.27;5.47;;;;;;;;;;4968653;28;20026;-74
2023/09/10 13:23:02;;;;;;;16.63;5.55;;;;;;;;;;4966383;28;20033;-74
2023/09/10 13:25:27;;;;;;;16.38;5.68;;;;;;;;;;4970235;28;20023;-74
2023/09/10 13:27:53;;;;;;;15.97;5.23;;;;;;;;;;4967090;28;20208;-74
2023/09/10 13:30:18;;;;;;;15.07;4.60;;;;;;;;;;4967577;28;20388;-74
2023/09/10 13:32:43;;;;;;;9.88;5.22;;;;;;;;;;4965525;28;20030;-74
2023/09/10 13:35:09;;;;;;;17.33;5.27;;;;;;;;;;4964753;28;20342;-74
2023/09/10 13:37:34;;;;;;;7.75;4.40;;;;;;;;;;4970195;28;20034;-74
2023/09/10 13:40:00;;;;;;;16.55;5.30;;;;;;;;;;4963981;28;20035;-74
2023/09/10 13:42:25;;;;;;;13.50;5.33;;;;;;;;;;4962159;28;20026;-74
2023/09/10 13:44:50;;;;;;;17.70;5.00;;;;;;;;;;4964137;28;20293;-75
2023/09/10 13:47:15;;;;;;;16.60;5.07;;;;;;;;;;4965145;28;20057;-75
2023/09/10 13:49:40;;;;;;;13.00;4.47;;;;;;;;;;4963446;28;20023;-75
2023/09/10 13:52:05;;;;;;;17.00;4.90;;;;;;;;;;4968151;28;20284;-75
2023/09/10 13:54:31;;;;;;;15.53;4.90;;;;;;;;;;4970283;28;20412;-76
2023/09/10 13:56:56;;;;;;;12.00;4.80;;;;;;;;;;4964677;28;20356;-75
2023/09/10 13:59:21;;;;;;;11.27;4.80;;;;;;;;;;4970733;28;20282;-76
2023/09/10 14:01:46;;;;;;;10.93;4.30;;;;;;;;;;4968183;28;20023;-76
2023/09/10 14:04:12;;;;;;;15.73;4.90;;;;;;;;;;4968607;28;20462;-75
2023/09/10 14:06:38;;;;;;;16.73;4.28;;;;;;;;;;4970199;28;20284;-75
2023/09/10 14:09:04;;;;;;;10.40;4.43;;;;;;;;;;4963215;28;20033;-75
2023/09/10 14:11:29;;;;;;;18.15;4.63;;;;;;;;;;4962539;28;20023;-75
2023/09/10 14:13:54;;;;;;;14.03;4.77;;;;;;;;;;4965936;28;20029;-75
2023/09/10 14:16:21;;;;;;;15.93;4.80;;;;;;;;;;4958621;28;20034;-75
2023/09/10 14:18:46;;;;;;;12.48;4.63;;;;;;;;;;4961028;28;20054;-75
2023/09/10 14:21:11;;;;;;;12.10;4.13;;;;;;;;;;4962458;28;20058;-75
2023/09/10 14:23:36;;;;;;;13.53;6.77;;;;;;;;;;4965741;28;20026;-76